createdAt,value
2023-02-13T00:05:59.754Z,77177.56
2023-02-13T00:16:03.408Z,77179.59
2023-02-13T00:26:12.239Z,77171.50
2023-02-13T00:36:25.071Z,77133.03
2023-02-13T00:46:27.635Z,77157.31
2023-02-13T00:56:31.127Z,77147.19
2023-02-13T01:06:37.826Z,77155.28
2023-02-13T01:16:43.101Z,77135.03
2023-02-13T01:26:47.482Z,77135.03
2023-02-13T01:36:52.019Z,77118.84
2023-02-13T01:46:54.200Z,77124.94
2023-02-13T01:57:08.260Z,77126.94
2023-02-13T02:07:30.252Z,77135.03
2023-02-13T02:17:37.566Z,77131.00
2023-02-13T02:28:05.208Z,77118.84
2023-02-13T02:38:27.090Z,77112.78
2023-02-13T02:48:51.459Z,77122.91
2023-02-13T02:59:22.389Z,77122.91
2023-02-13T03:09:53.540Z,77118.84
2023-02-13T03:20:59.666Z,77112.78
2023-02-13T03:31:14.081Z,77110.75
2023-02-13T03:41:27.612Z,77104.69
2023-02-13T03:51:34.199Z,77098.59
2023-02-13T04:01:41.976Z,77112.78
2023-02-13T04:11:55.575Z,77108.72
2023-02-13T04:22:02.896Z,77096.59
2023-02-13T04:32:07.202Z,77104.69
2023-02-13T04:42:09.314Z,77110.75
2023-02-13T04:52:11.511Z,77100.63
2023-02-13T05:02:13.509Z,77100.63
2023-02-13T05:12:15.573Z,77086.47
2023-02-13T05:22:36.412Z,77098.59
2023-02-13T05:32:43.386Z,77082.41
2023-02-13T05:42:47.684Z,77084.44
2023-02-13T05:52:51.984Z,77098.59
2023-02-13T06:02:56.439Z,77098.59
2023-02-13T06:12:58.472Z,77090.50
2023-02-13T06:23:00.551Z,77084.44
2023-02-13T06:33:05.077Z,77078.34
2023-02-13T06:43:07.254Z,77078.34
2023-02-13T06:53:09.266Z,77086.47
2023-02-13T07:03:11.537Z,77086.47
2023-02-13T07:13:16.096Z,77078.34
2023-02-13T07:23:18.842Z,77074.31
2023-02-13T07:33:21.004Z,77045.97
2023-02-13T07:43:27.648Z,77023.69
2023-02-13T07:53:32.682Z,76981.19
2023-02-13T08:03:37.007Z,76989.28
2023-02-13T08:13:41.897Z,76956.91
2023-02-13T08:23:46.258Z,76922.47
2023-02-13T08:33:50.754Z,76912.34
2023-02-13T08:43:57.465Z,76882.00
2023-02-13T08:54:01.992Z,76835.44
2023-02-13T09:04:05.129Z,76809.13
2023-02-13T09:14:07.318Z,76839.47
2023-02-13T09:24:10.711Z,76859.72
2023-02-13T09:34:17.686Z,76855.66
2023-02-13T09:44:35.354Z,76837.44
2023-02-13T09:54:42.025Z,76851.63
2023-02-13T10:05:03.542Z,76827.34
2023-02-13T10:15:21.931Z,76831.38
2023-02-13T10:25:51.219Z,76837.44
2023-02-13T10:36:11.510Z,76855.66
2023-02-13T10:46:22.980Z,76819.25
2023-02-13T10:56:37.198Z,76825.31
2023-02-13T11:06:56.426Z,76829.34
2023-02-13T11:17:05.718Z,76770.66
2023-02-13T11:27:14.069Z,76764.56
2023-02-13T11:37:23.382Z,76762.56
2023-02-13T11:47:43.142Z,76790.91
2023-02-13T11:57:56.792Z,76782.78
2023-02-13T12:08:02.235Z,76766.59
2023-02-13T12:18:20.825Z,76766.59
2023-02-13T12:28:51.707Z,76713.97
2023-02-13T12:38:59.649Z,76738.25
2023-02-13T12:49:45.543Z,76732.19
2023-02-13T13:00:07.193Z,76713.97
2023-02-13T13:10:20.850Z,76693.72
2023-02-13T13:20:44.651Z,76637.03
2023-02-13T13:30:47.286Z,76628.94
2023-02-13T13:41:46.175Z,76620.84
2023-02-13T13:51:48.701Z,76667.41
2023-02-13T14:02:19.528Z,76665.38
2023-02-13T14:12:30.528Z,76681.59
2023-02-13T14:22:41.601Z,76689.69
2023-02-13T14:32:45.920Z,76689.69
2023-02-13T14:43:04.222Z,76720.03
2023-02-13T14:53:17.127Z,76722.06
2023-02-13T15:03:32.053Z,76713.97
2023-02-13T15:13:38.012Z,76681.59
2023-02-13T15:23:46.315Z,76669.44
2023-02-13T15:33:58.967Z,76669.44
2023-02-13T15:44:01.305Z,76671.47
2023-02-13T15:54:07.857Z,76701.81
2023-02-13T16:04:14.997Z,76701.81
2023-02-13T16:14:24.939Z,76722.06
2023-02-13T16:24:34.485Z,76699.81
2023-02-13T16:34:36.826Z,76730.16
2023-02-13T16:44:38.912Z,76738.25
2023-02-13T16:55:04.578Z,76748.38
2023-02-13T17:05:09.658Z,76740.28
2023-02-13T17:15:17.865Z,76746.34
2023-02-13T17:25:21.322Z,76738.25
2023-02-13T17:35:23.547Z,76740.28
2023-02-13T17:45:33.208Z,76740.28
2023-02-13T17:55:40.230Z,76758.50
2023-02-13T18:05:48.224Z,76756.47
2023-02-13T18:15:52.705Z,76780.78
2023-02-13T18:25:58.221Z,76782.78
2023-02-13T18:36:04.139Z,76792.91
2023-02-13T18:46:08.675Z,76762.56
2023-02-13T18:56:16.096Z,76778.75
2023-02-13T19:06:21.495Z,76803.03
2023-02-13T19:16:28.203Z,76811.13
2023-02-13T19:26:32.560Z,76799.00
2023-02-13T19:36:37.181Z,76809.13
2023-02-13T19:46:39.872Z,76813.16
2023-02-13T19:56:42.175Z,76823.28
2023-02-13T20:06:44.825Z,76823.28
2023-02-13T20:16:47.002Z,76827.34
2023-02-13T20:26:59.052Z,76851.63
2023-02-13T20:37:01.157Z,76841.50
2023-02-13T20:47:05.422Z,76849.59
2023-02-13T20:57:07.709Z,76845.56
2023-02-13T21:07:09.864Z,76835.44
2023-02-13T21:17:15.596Z,76853.66
2023-02-13T21:27:22.661Z,76863.78
2023-02-13T21:37:27.654Z,76847.56
2023-02-13T21:47:29.781Z,76871.88
2023-02-13T21:57:35.339Z,76851.63
2023-02-13T22:07:59.503Z,76871.88
2023-02-13T22:18:04.503Z,76892.13
2023-02-13T22:28:09.569Z,76857.69
2023-02-13T22:38:12.101Z,76871.88
2023-02-13T22:48:19.099Z,76894.13
2023-02-13T22:58:21.177Z,76884.00
2023-02-13T23:08:23.185Z,76906.28
2023-02-13T23:18:27.722Z,76896.16
2023-02-13T23:28:29.794Z,76916.41
2023-02-13T23:38:34.202Z,76922.47
2023-02-13T23:48:36.336Z,76918.44
2023-02-13T23:58:38.471Z,76902.22
